sensor_id;sensor_type;location;lat;lon;timestamp;P1;durP1;ratioP1;P2;durP2;ratioP2
18228;SDS011;9239;50.932;3.142;2023-07-13T00:01:05;7.45;;;3.05;;
18228;SDS011;9239;50.932;3.142;2023-07-13T00:03:34;8.75;;;3.60;;
18228;SDS011;9239;50.932;3.142;2023-07-13T00:06:01;8.63;;;3.53;;
18228;SDS011;9239;50.932;3.142;2023-07-13T00:08:30;6.40;;;3.13;;
18228;SDS011;9239;50.932;3.142;2023-07-13T00:10:58;10.43;;;3.20;;
18228;SDS011;9239;50.932;3.142;2023-07-13T00:13:25;9.77;;;3.15;;
18228;SDS011;9239;50.932;3.142;2023-07-13T00:15:52;9.10;;;3.47;;
18228;SDS011;9239;50.932;3.142;2023-07-13T00:18:20;8.82;;;3.30;;
18228;SDS011;9239;50.932;3.142;2023-07-13T00:20:48;9.75;;;3.30;;
18228;SDS011;9239;50.932;3.142;2023-07-13T00:23:15;14.48;;;3.80;;
18228;SDS011;9239;50.932;3.142;2023-07-13T00:25:44;12.68;;;3.80;;
18228;SDS011;9239;50.932;3.142;2023-07-13T00:28:11;11.18;;;3.67;;
18228;SDS011;9239;50.932;3.142;2023-07-13T00:30:38;8.75;;;3.40;;
18228;SDS011;9239;50.932;3.142;2023-07-13T00:33:05;11.77;;;3.80;;
18228;SDS011;9239;50.932;3.142;2023-07-13T00:35:32;11.35;;;4.13;;
18228;SDS011;9239;50.932;3.142;2023-07-13T00:38:01;9.02;;;3.17;;
18228;SDS011;9239;50.932;3.142;2023-07-13T00:40:28;7.80;;;3.03;;
18228;SDS011;9239;50.932;3.142;2023-07-13T00:42:56;11.68;;;3.97;;
18228;SDS011;9239;50.932;3.142;2023-07-13T00:48:29;10.75;;;3.80;;
18228;SDS011;9239;50.932;3.142;2023-07-13T00:51:00;8.02;;;2.97;;
18228;SDS011;9239;50.932;3.142;2023-07-13T00:53:29;9.10;;;3.30;;
18228;SDS011;9239;50.932;3.142;2023-07-13T00:55:58;7.95;;;3.35;;
18228;SDS011;9239;50.932;3.142;2023-07-13T00:58:25;12.75;;;3.75;;
18228;SDS011;9239;50.932;3.142;2023-07-13T01:00:54;9.27;;;3.80;;
18228;SDS011;9239;50.932;3.142;2023-07-13T01:03:21;14.32;;;4.18;;
18228;SDS011;9239;50.932;3.142;2023-07-13T01:05:49;9.93;;;3.60;;
18228;SDS011;9239;50.932;3.142;2023-07-13T01:08:18;10.00;;;3.80;;
18228;SDS011;9239;50.932;3.142;2023-07-13T01:10:54;10.48;;;3.78;;
18228;SDS011;9239;50.932;3.142;2023-07-13T01:13:23;11.63;;;3.80;;
18228;SDS011;9239;50.932;3.142;2023-07-13T01:15:51;12.25;;;3.65;;
18228;SDS011;9239;50.932;3.142;2023-07-13T01:18:20;8.48;;;3.55;;
18228;SDS011;9239;50.932;3.142;2023-07-13T01:20:52;13.02;;;4.22;;
18228;SDS011;9239;50.932;3.142;2023-07-13T01:23:20;10.27;;;4.63;;
18228;SDS011;9239;50.932;3.142;2023-07-13T01:25:47;7.65;;;4.03;;
18228;SDS011;9239;50.932;3.142;2023-07-13T01:28:14;10.32;;;4.15;;
18228;SDS011;9239;50.932;3.142;2023-07-13T01:30:42;11.00;;;3.70;;
18228;SDS011;9239;50.932;3.142;2023-07-13T01:33:10;10.27;;;3.88;;
18228;SDS011;9239;50.932;3.142;2023-07-13T01:35:38;9.23;;;4.45;;
18228;SDS011;9239;50.932;3.142;2023-07-13T01:38:07;9.02;;;3.90;;
18228;SDS011;9239;50.932;3.142;2023-07-13T01:40:34;11.18;;;4.15;;
18228;SDS011;9239;50.932;3.142;2023-07-13T01:43:01;10.90;;;3.92;;
18228;SDS011;9239;50.932;3.142;2023-07-13T01:45:28;12.73;;;4.70;;
18228;SDS011;9239;50.932;3.142;2023-07-13T01:47:55;12.45;;;4.88;;
18228;SDS011;9239;50.932;3.142;2023-07-13T01:50:23;11.30;;;5.22;;
18228;SDS011;9239;50.932;3.142;2023-07-13T01:52:50;11.98;;;3.70;;
18228;SDS011;9239;50.932;3.142;2023-07-13T01:55:19;9.02;;;3.78;;
18228;SDS011;9239;50.932;3.142;2023-07-13T01:57:47;12.90;;;4.47;;
18228;SDS011;9239;50.932;3.142;2023-07-13T02:00:14;10.65;;;3.95;;
18228;SDS011;9239;50.932;3.142;2023-07-13T02:02:42;8.85;;;3.50;;
18228;SDS011;9239;50.932;3.142;2023-07-13T02:05:09;11.07;;;4.25;;
18228;SDS011;9239;50.932;3.142;2023-07-13T02:07:36;11.18;;;4.35;;
18228;SDS011;9239;50.932;3.142;2023-07-13T02:10:04;9.93;;;3.90;;
18228;SDS011;9239;50.932;3.142;2023-07-13T02:12:33;16.05;;;5.35;;
18228;SDS011;9239;50.932;3.142;2023-07-13T02:15:00;11.95;;;5.25;;
18228;SDS011;9239;50.932;3.142;2023-07-13T02:17:27;10.25;;;4.97;;
18228;SDS011;9239;50.932;3.142;2023-07-13T02:19:54;11.93;;;4.00;;
18228;SDS011;9239;50.932;3.142;2023-07-13T02:22:21;12.88;;;4.43;;
18228;SDS011;9239;50.932;3.142;2023-07-13T02:24:48;10.35;;;4.32;;
18228;SDS011;9239;50.932;3.142;2023-07-13T02:27:15;14.80;;;3.97;;
18228;SDS011;9239;50.932;3.142;2023-07-13T02:29:44;9.55;;;4.13;;
18228;SDS011;9239;50.932;3.142;2023-07-13T02:32:11;13.88;;;4.35;;
18228;SDS011;9239;50.932;3.142;2023-07-13T02:34:38;10.63;;;5.07;;
18228;SDS011;9239;50.932;3.142;2023-07-13T02:37:05;11.40;;;3.80;;
18228;SDS011;9239;50.932;3.142;2023-07-13T02:39:32;11.82;;;5.28;;
18228;SDS011;9239;50.932;3.142;2023-07-13T02:41:59;13.60;;;4.43;;
18228;SDS011;9239;50.932;3.142;2023-07-13T02:44:26;9.10;;;4.55;;
18228;SDS011;9239;50.932;3.142;2023-07-13T02:46:54;11.52;;;4.68;;
18228;SDS011;9239;50.932;3.142;2023-07-13T02:49:21;10.35;;;3.85;;
18228;SDS011;9239;50.932;3.142;2023-07-13T02:51:48;8.48;;;4.00;;
18228;SDS011;9239;50.932;3.142;2023-07-13T02:54:15;10.35;;;4.03;;
18228;SDS011;9239;50.932;3.142;2023-07-13T02:56:42;13.75;;;4.60;;
18228;SDS011;9239;50.932;3.142;2023-07-13T02:59:09;10.43;;;4.00;;
18228;SDS011;9239;50.932;3.142;2023-07-13T03:01:37;14.35;;;4.78;;
18228;SDS011;9239;50.932;3.142;2023-07-13T03:04:05;13.23;;;4.50;;
18228;SDS011;9239;50.932;3.142;2023-07-13T03:06:32;12.32;;;4.25;;
18228;SDS011;9239;50.932;3.142;2023-07-13T03:09:00;8.02;;;3.95;;
18228;SDS011;9239;50.932;3.142;2023-07-13T03:11:29;8.95;;;4.40;;
18228;SDS011;9239;50.932;3.142;2023-07-13T03:13:56;10.75;;;4.50;;
18228;SDS011;9239;50.932;3.142;2023-07-13T03:16:24;10.90;;;4.40;;
18228;SDS011;9239;50.932;3.142;2023-07-13T03:18:50;10.75;;;3.97;;
18228;SDS011;9239;50.932;3.142;2023-07-13T03:21:19;11.05;;;4.15;;
18228;SDS011;9239;50.932;3.142;2023-07-13T03:23:46;11.55;;;4.18;;
18228;SDS011;9239;50.932;3.142;2023-07-13T03:26:13;11.05;;;4.60;;
18228;SDS011;9239;50.932;3.142;2023-07-13T03:28:42;13.18;;;4.18;;
18228;SDS011;9239;50.932;3.142;2023-07-13T03:31:10;10.43;;;4.13;;
18228;SDS011;9239;50.932;3.142;2023-07-13T03:33:39;14.13;;;4.38;;
18228;SDS011;9239;50.932;3.142;2023-07-13T03:36:07;10.98;;;4.07;;
18228;SDS011;9239;50.932;3.142;2023-07-13T03:38:38;7.03;;;3.90;;
18228;SDS011;9239;50.932;3.142;2023-07-13T03:41:05;13.90;;;4.13;;
18228;SDS011;9239;50.932;3.142;2023-07-13T03:43:32;9.25;;;3.75;;
18228;SDS011;9239;50.932;3.142;2023-07-13T03:45:59;11.68;;;4.13;;
18228;SDS011;9239;50.932;3.142;2023-07-13T03:48:26;10.18;;;4.32;;
18228;SDS011;9239;50.932;3.142;2023-07-13T03:50:53;7.90;;;4.25;;
18228;SDS011;9239;50.932;3.142;2023-07-13T03:53:20;8.70;;;4.43;;
18228;SDS011;9239;50.932;3.142;2023-07-13T03:55:48;10.13;;;4.10;;
18228;SDS011;9239;50.932;3.142;2023-07-13T03:58:25;12.48;;;4.53;;
18228;SDS011;9239;50.932;3.142;2023-07-13T04:00:54;11.20;;;4.28;;
18228;SDS011;9239;50.932;3.142;2023-07-13T04:03:21;11.57;;;4.40;;
18228;SDS011;9239;50.932;3.142;2023-07-13T04:05:48;9.80;;;4.55;;
18228;SDS011;9239;50.932;3.142;2023-07-13T04:08:15;12.23;;;4.68;;
18228;SDS011;9239;50.932;3.142;2023-07-13T04:10:42;13.10;;;4.30;;
18228;SDS011;9239;50.932;3.142;2023-07-13T04:13:11;11.00;;;4.75;;
18228;SDS011;9239;50.932;3.142;2023-07-13T04:15:38;11.88;;;4.25;;
18228;SDS011;9239;50.932;3.142;2023-07-13T04:18:06;10.48;;;4.18;;
18228;SDS011;9239;50.932;3.142;2023-07-13T04:20:32;8.77;;;4.13;;
18228;SDS011;9239;50.932;3.142;2023-07-13T04:22:59;12.40;;;3.97;;
18228;SDS011;9239;50.932;3.142;2023-07-13T04:25:26;13.82;;;4.88;;
18228;SDS011;9239;50.932;3.142;2023-07-13T04:27:53;9.95;;;4.40;;
18228;SDS011;9239;50.932;3.142;2023-07-13T04:30:22;10.63;;;4.57;;
18228;SDS011;9239;50.932;3.142;2023-07-13T04:32:50;8.60;;;3.72;;
18228;SDS011;9239;50.932;3.142;2023-07-13T04:35:18;8.90;;;4.18;;
18228;SDS011;9239;50.932;3.142;2023-07-13T04:37:46;10.38;;;5.25;;
18228;SDS011;9239;50.932;3.142;2023-07-13T04:40:15;8.95;;;4.38;;
18228;SDS011;9239;50.932;3.142;2023-07-13T04:42:42;10.23;;;4.65;;
18228;SDS011;9239;50.932;3.142;2023-07-13T04:45:09;12.15;;;4.47;;
18228;SDS011;9239;50.932;3.142;2023-07-13T04:47:38;10.63;;;4.40;;
18228;SDS011;9239;50.932;3.142;2023-07-13T04:50:06;8.60;;;3.95;;
18228;SDS011;9239;50.932;3.142;2023-07-13T04:52:33;11.43;;;4.53;;
18228;SDS011;9239;50.932;3.142;2023-07-13T04:55:00;14.52;;;4.93;;
18228;SDS011;9239;50.932;3.142;2023-07-13T04:57:27;9.88;;;4.45;;
18228;SDS011;9239;50.932;3.142;2023-07-13T04:59:54;10.93;;;4.22;;
18228;SDS011;9239;50.932;3.142;2023-07-13T05:02:21;9.98;;;4.05;;
18228;SDS011;9239;50.932;3.142;2023-07-13T05:04:49;9.85;;;3.65;;
18228;SDS011;9239;50.932;3.142;2023-07-13T05:07:16;11.90;;;4.80;;
18228;SDS011;9239;50.932;3.142;2023-07-13T05:09:43;9.88;;;4.43;;
18228;SDS011;9239;50.932;3.142;2023-07-13T05:12:10;13.88;;;4.43;;
18228;SDS011;9239;50.932;3.142;2023-07-13T05:14:37;12.18;;;4.50;;
18228;SDS011;9239;50.932;3.142;2023-07-13T05:17:04;11.93;;;4.68;;
18228;SDS011;9239;50.932;3.142;2023-07-13T05:19:31;11.95;;;4.68;;
18228;SDS011;9239;50.932;3.142;2023-07-13T05:21:59;11.82;;;4.60;;
18228;SDS011;9239;50.932;3.142;2023-07-13T05:24:27;11.60;;;4.55;;
18228;SDS011;9239;50.932;3.142;2023-07-13T05:26:55;14.20;;;4.15;;
18228;SDS011;9239;50.932;3.142;2023-07-13T05:29:22;12.05;;;4.93;;
18228;SDS011;9239;50.932;3.142;2023-07-13T05:31:49;8.02;;;4.53;;
18228;SDS011;9239;50.932;3.142;2023-07-13T05:34:16;9.18;;;4.40;;
18228;SDS011;9239;50.932;3.142;2023-07-13T05:36:43;11.23;;;3.60;;
18228;SDS011;9239;50.932;3.142;2023-07-13T05:39:11;12.20;;;4.30;;
18228;SDS011;9239;50.932;3.142;2023-07-13T05:41:39;11.55;;;4.72;;
18228;SDS011;9239;50.932;3.142;2023-07-13T05:44:06;13.32;;;5.55;;
18228;SDS011;9239;50.932;3.142;2023-07-13T05:46:33;13.93;;;4.07;;
18228;SDS011;9239;50.932;3.142;2023-07-13T05:49:00;8.85;;;3.85;;
18228;SDS011;9239;50.932;3.142;2023-07-13T05:51:27;12.95;;;4.63;;
18228;SDS011;9239;50.932;3.142;2023-07-13T05:53:53;14.38;;;4.72;;
18228;SDS011;9239;50.932;3.142;2023-07-13T05:56:22;11.45;;;4.40;;
18228;SDS011;9239;50.932;3.142;2023-07-13T05:58:50;9.68;;;3.70;;
18228;SDS011;9239;50.932;3.142;2023-07-13T06:01:17;10.63;;;4.03;;
18228;SDS011;9239;50.932;3.142;2023-07-13T06:03:45;14.88;;;5.95;;
18228;SDS011;9239;50.932;3.142;2023-07-13T06:06:12;9.30;;;3.95;;
18228;SDS011;9239;50.932;3.142;2023-07-13T06:08:39;8.02;;;4.30;;
18228;SDS011;9239;50.932;3.142;2023-07-13T06:11:07;12.32;;;4.47;;
18228;SDS011;9239;50.932;3.142;2023-07-13T06:13:39;12.55;;;4.15;;
18228;SDS011;9239;50.932;3.142;2023-07-13T06:16:06;10.70;;;4.53;;
18228;SDS011;9239;50.932;3.142;2023-07-13T06:18:34;10.25;;;4.10;;
18228;SDS011;9239;50.932;3.142;2023-07-13T06:21:05;11.27;;;3.63;;
18228;SDS011;9239;50.932;3.142;2023-07-13T06:23:33;7.03;;;3.85;;
18228;SDS011;9239;50.932;3.142;2023-07-13T06:26:00;8.20;;;3.45;;
18228;SDS011;9239;50.932;3.142;2023-07-13T06:28:28;7.38;;;4.25;;
18228;SDS011;9239;50.932;3.142;2023-07-13T06:30:58;13.57;;;4.40;;
18228;SDS011;9239;50.932;3.142;2023-07-13T06:33:25;10.45;;;4.10;;
18228;SDS011;9239;50.932;3.142;2023-07-13T06:35:52;13.52;;;4.93;;
18228;SDS011;9239;50.932;3.142;2023-07-13T06:38:20;8.00;;;3.70;;
18228;SDS011;9239;50.932;3.142;2023-07-13T06:40:47;10.82;;;4.35;;
18228;SDS011;9239;50.932;3.142;2023-07-13T06:43:14;8.25;;;3.65;;
18228;SDS011;9239;50.932;3.142;2023-07-13T06:45:41;7.40;;;3.80;;
18228;SDS011;9239;50.932;3.142;2023-07-13T06:48:13;7.13;;;4.10;;
18228;SDS011;9239;50.932;3.142;2023-07-13T06:50:41;10.18;;;3.85;;
18228;SDS011;9239;50.932;3.142;2023-07-13T06:53:08;13.65;;;4.07;;
18228;SDS011;9239;50.932;3.142;2023-07-13T06:55:35;8.95;;;3.50;;
18228;SDS011;9239;50.932;3.142;2023-07-13T06:58:02;9.90;;;4.35;;
18228;SDS011;9239;50.932;3.142;2023-07-13T07:00:29;11.55;;;4.05;;
18228;SDS011;9239;50.932;3.142;2023-07-13T07:02:56;9.00;;;4.07;;
18228;SDS011;9239;50.932;3.142;2023-07-13T07:05:24;11.80;;;3.70;;
18228;SDS011;9239;50.932;3.142;2023-07-13T07:07:52;12.65;;;3.63;;
18228;SDS011;9239;50.932;3.142;2023-07-13T07:10:20;9.02;;;3.90;;
18228;SDS011;9239;50.932;3.142;2023-07-13T07:12:47;11.05;;;3.53;;
18228;SDS011;9239;50.932;3.142;2023-07-13T07:15:14;9.32;;;3.70;;
18228;SDS011;9239;50.932;3.142;2023-07-13T07:17:41;9.13;;;4.10;;
18228;SDS011;9239;50.932;3.142;2023-07-13T07:20:09;8.82;;;3.80;;
18228;SDS011;9239;50.932;3.142;2023-07-13T07:22:38;9.30;;;4.00;;
18228;SDS011;9239;50.932;3.142;2023-07-13T07:25:05;12.82;;;3.92;;
18228;SDS011;9239;50.932;3.142;2023-07-13T07:27:33;11.70;;;3.78;;
18228;SDS011;9239;50.932;3.142;2023-07-13T07:30:00;13.88;;;4.60;;
18228;SDS011;9239;50.932;3.142;2023-07-13T07:32:28;11.95;;;4.00;;
18228;SDS011;9239;50.932;3.142;2023-07-13T07:34:55;9.50;;;3.80;;
18228;SDS011;9239;50.932;3.142;2023-07-13T07:37:22;8.65;;;3.83;;
18228;SDS011;9239;50.932;3.142;2023-07-13T07:39:51;6.68;;;3.63;;
18228;SDS011;9239;50.932;3.142;2023-07-13T07:42:18;9.07;;;4.13;;
18228;SDS011;9239;50.932;3.142;2023-07-13T07:44:45;10.15;;;4.38;;
18228;SDS011;9239;50.932;3.142;2023-07-13T07:47:12;14.07;;;4.65;;
18228;SDS011;9239;50.932;3.142;2023-07-13T07:49:40;9.45;;;3.70;;
18228;SDS011;9239;50.932;3.142;2023-07-13T07:52:07;9.30;;;3.50;;
18228;SDS011;9239;50.932;3.142;2023-07-13T07:54:34;7.40;;;3.03;;
18228;SDS011;9239;50.932;3.142;2023-07-13T07:57:02;6.45;;;3.45;;
18228;SDS011;9239;50.932;3.142;2023-07-13T07:59:29;8.75;;;3.60;;
18228;SDS011;9239;50.932;3.142;2023-07-13T08:01:56;13.23;;;3.92;;
18228;SDS011;9239;50.932;3.142;2023-07-13T08:04:24;7.90;;;3.40;;
18228;SDS011;9239;50.932;3.142;2023-07-13T08:06:50;6.95;;;3.83;;
18228;SDS011;9239;50.932;3.142;2023-07-13T08:09:17;8.10;;;3.30;;
18228;SDS011;9239;50.932;3.142;2023-07-13T08:11:44;5.88;;;3.22;;
18228;SDS011;9239;50.932;3.142;2023-07-13T08:14:12;7.10;;;3.42;;
18228;SDS011;9239;50.932;3.142;2023-07-13T08:16:40;8.30;;;3.95;;
18228;SDS011;9239;50.932;3.142;2023-07-13T08:19:07;5.80;;;2.97;;
18228;SDS011;9239;50.932;3.142;2023-07-13T08:21:33;7.20;;;3.00;;
18228;SDS011;9239;50.932;3.142;2023-07-13T08:24:02;8.38;;;3.28;;
18228;SDS011;9239;50.932;3.142;2023-07-13T08:26:29;8.85;;;3.58;;
18228;SDS011;9239;50.932;3.142;2023-07-13T08:28:56;10.18;;;3.60;;
18228;SDS011;9239;50.932;3.142;2023-07-13T08:31:24;8.80;;;2.90;;
18228;SDS011;9239;50.932;3.142;2023-07-13T08:33:51;5.22;;;2.88;;
18228;SDS011;9239;50.932;3.142;2023-07-13T08:36:18;6.85;;;3.20;;
18228;SDS011;9239;50.932;3.142;2023-07-13T08:38:45;5.65;;;2.72;;
18228;SDS011;9239;50.932;3.142;2023-07-13T08:41:13;9.02;;;3.50;;
18228;SDS011;9239;50.932;3.142;2023-07-13T08:43:42;7.00;;;3.15;;
18228;SDS011;9239;50.932;3.142;2023-07-13T08:46:14;7.75;;;3.55;;
18228;SDS011;9239;50.932;3.142;2023-07-13T08:48:47;7.25;;;3.78;;
18228;SDS011;9239;50.932;3.142;2023-07-13T08:51:26;7.80;;;3.70;;
18228;SDS011;9239;50.932;3.142;2023-07-13T08:53:58;8.40;;;3.13;;
18228;SDS011;9239;50.932;3.142;2023-07-13T08:56:28;9.75;;;3.53;;
18228;SDS011;9239;50.932;3.142;2023-07-13T08:58:57;6.75;;;3.08;;
18228;SDS011;9239;50.932;3.142;2023-07-13T09:01:31;5.18;;;2.95;;
18228;SDS011;9239;50.932;3.142;2023-07-13T09:04:09;8.40;;;2.97;;
18228;SDS011;9239;50.932;3.142;2023-07-13T09:06:44;7.47;;;2.90;;
18228;SDS011;9239;50.932;3.142;2023-07-13T09:09:18;9.20;;;3.05;;
18228;SDS011;9239;50.932;3.142;2023-07-13T09:12:00;10.32;;;3.40;;
18228;SDS011;9239;50.932;3.142;2023-07-13T09:14:40;5.20;;;2.63;;
18228;SDS011;9239;50.932;3.142;2023-07-13T09:17:15;3.90;;;2.53;;
18228;SDS011;9239;50.932;3.142;2023-07-13T09:19:47;4.63;;;3.03;;
18228;SDS011;9239;50.932;3.142;2023-07-13T09:22:20;9.20;;;3.03;;
18228;SDS011;9239;50.932;3.142;2023-07-13T09:24:56;5.78;;;2.47;;
18228;SDS011;9239;50.932;3.142;2023-07-13T09:27:29;5.15;;;2.20;;
18228;SDS011;9239;50.932;3.142;2023-07-13T09:30:11;4.45;;;2.40;;
18228;SDS011;9239;50.932;3.142;2023-07-13T09:32:51;4.75;;;2.35;;
18228;SDS011;9239;50.932;3.142;2023-07-13T09:35:21;4.57;;;2.35;;
18228;SDS011;9239;50.932;3.142;2023-07-13T09:37:56;4.78;;;2.70;;
18228;SDS011;9239;50.932;3.142;2023-07-13T09:40:26;6.40;;;2.33;;
18228;SDS011;9239;50.932;3.142;2023-07-13T09:43:00;7.13;;;2.80;;
18228;SDS011;9239;50.932;3.142;2023-07-13T09:45:29;4.72;;;2.50;;
18228;SDS011;9239;50.932;3.142;2023-07-13T09:48:03;2.55;;;1.77;;
18228;SDS011;9239;50.932;3.142;2023-07-13T09:50:35;4.53;;;2.20;;
18228;SDS011;9239;50.932;3.142;2023-07-13T09:53:02;4.65;;;1.90;;
18228;SDS011;9239;50.932;3.142;2023-07-13T09:55:30;2.83;;;1.83;;
18228;SDS011;9239;50.932;3.142;2023-07-13T09:58:02;7.22;;;2.58;;
18228;SDS011;9239;50.932;3.142;2023-07-13T10:00:31;4.47;;;2.63;;
18228;SDS011;9239;50.932;3.142;2023-07-13T10:02:59;6.68;;;2.95;;
18228;SDS011;9239;50.932;3.142;2023-07-13T10:05:28;5.72;;;3.50;;
18228;SDS011;9239;50.932;3.142;2023-07-13T10:08:05;7.75;;;3.60;;
18228;SDS011;9239;50.932;3.142;2023-07-13T10:10:41;8.45;;;4.00;;
18228;SDS011;9239;50.932;3.142;2023-07-13T10:13:12;8.10;;;3.67;;
18228;SDS011;9239;50.932;3.142;2023-07-13T10:15:53;5.90;;;3.45;;
18228;SDS011;9239;50.932;3.142;2023-07-13T10:18:21;5.78;;;3.13;;
18228;SDS011;9239;50.932;3.142;2023-07-13T10:20:52;4.50;;;3.17;;
18228;SDS011;9239;50.932;3.142;2023-07-13T10:23:25;4.43;;;3.15;;
18228;SDS011;9239;50.932;3.142;2023-07-13T10:25:58;4.95;;;3.38;;
18228;SDS011;9239;50.932;3.142;2023-07-13T10:28:28;7.22;;;3.40;;
18228;SDS011;9239;50.932;3.142;2023-07-13T10:30:58;5.38;;;3.38;;
18228;SDS011;9239;50.932;3.142;2023-07-13T10:33:27;4.63;;;3.33;;
18228;SDS011;9239;50.932;3.142;2023-07-13T10:35:57;6.05;;;3.72;;
18228;SDS011;9239;50.932;3.142;2023-07-13T10:38:30;5.53;;;3.50;;
18228;SDS011;9239;50.932;3.142;2023-07-13T10:40:58;4.53;;;2.92;;
18228;SDS011;9239;50.932;3.142;2023-07-13T10:43:31;4.57;;;2.80;;
18228;SDS011;9239;50.932;3.142;2023-07-13T10:46:02;4.22;;;3.15;;
18228;SDS011;9239;50.932;3.142;2023-07-13T10:48:31;4.68;;;3.03;;
18228;SDS011;9239;50.932;3.142;2023-07-13T10:51:03;4.80;;;2.75;;
18228;SDS011;9239;50.932;3.142;2023-07-13T10:53:33;6.15;;;2.90;;
18228;SDS011;9239;50.932;3.142;2023-07-13T10:56:02;3.67;;;2.58;;
18228;SDS011;9239;50.932;3.142;2023-07-13T10:58:34;5.47;;;2.28;;
18228;SDS011;9239;50.932;3.142;2023-07-13T11:01:04;3.22;;;2.67;;
18228;SDS011;9239;50.932;3.142;2023-07-13T11:03:35;5.38;;;2.75;;
18228;SDS011;9239;50.932;3.142;2023-07-13T11:06:10;3.33;;;2.85;;
18228;SDS011;9239;50.932;3.142;2023-07-13T11:08:50;4.90;;;2.58;;
18228;SDS011;9239;50.932;3.142;2023-07-13T11:11:32;5.60;;;2.20;;
18228;SDS011;9239;50.932;3.142;2023-07-13T11:14:03;4.07;;;2.50;;
18228;SDS011;9239;50.932;3.142;2023-07-13T11:16:52;3.60;;;2.20;;
18228;SDS011;9239;50.932;3.142;2023-07-13T11:19:26;2.75;;;1.73;;
18228;SDS011;9239;50.932;3.142;2023-07-13T11:22:12;3.17;;;2.20;;
18228;SDS011;9239;50.932;3.142;2023-07-13T11:24:48;3.60;;;1.80;;
18228;SDS011;9239;50.932;3.142;2023-07-13T11:27:32;3.63;;;2.00;;
18228;SDS011;9239;50.932;3.142;2023-07-13T11:30:22;2.17;;;1.67;;
18228;SDS011;9239;50.932;3.142;2023-07-13T11:33:09;2.60;;;1.52;;
18228;SDS011;9239;50.932;3.142;2023-07-13T11:35:41;5.18;;;1.95;;
18228;SDS011;9239;50.932;3.142;2023-07-13T11:38:16;3.00;;;2.17;;
18228;SDS011;9239;50.932;3.142;2023-07-13T11:40:46;3.22;;;1.70;;
18228;SDS011;9239;50.932;3.142;2023-07-13T11:43:15;2.65;;;1.77;;
18228;SDS011;9239;50.932;3.142;2023-07-13T11:45:43;3.95;;;1.85;;
18228;SDS011;9239;50.932;3.142;2023-07-13T11:48:19;2.55;;;1.50;;
18228;SDS011;9239;50.932;3.142;2023-07-13T11:50:51;2.20;;;1.75;;
18228;SDS011;9239;50.932;3.142;2023-07-13T11:53:21;3.60;;;1.75;;
18228;SDS011;9239;50.932;3.142;2023-07-13T11:55:49;3.47;;;1.88;;
18228;SDS011;9239;50.932;3.142;2023-07-13T11:58:19;3.33;;;1.75;;
18228;SDS011;9239;50.932;3.142;2023-07-13T12:00:49;5.95;;;2.13;;
18228;SDS011;9239;50.932;3.142;2023-07-13T12:03:21;5.15;;;1.70;;
18228;SDS011;9239;50.932;3.142;2023-07-13T12:05:57;2.97;;;1.50;;
18228;SDS011;9239;50.932;3.142;2023-07-13T12:08:26;2.38;;;1.70;;
18228;SDS011;9239;50.932;3.142;2023-07-13T12:10:57;2.38;;;2.15;;
18228;SDS011;9239;50.932;3.142;2023-07-13T12:13:34;2.65;;;1.60;;
18228;SDS011;9239;50.932;3.142;2023-07-13T12:16:08;1.77;;;1.60;;
18228;SDS011;9239;50.932;3.142;2023-07-13T12:18:42;3.38;;;1.73;;
18228;SDS011;9239;50.932;3.142;2023-07-13T12:21:14;3.63;;;1.50;;
18228;SDS011;9239;50.932;3.142;2023-07-13T12:23:45;3.45;;;1.45;;
18228;SDS011;9239;50.932;3.142;2023-07-13T12:26:15;2.47;;;1.67;;
18228;SDS011;9239;50.932;3.142;2023-07-13T12:28:45;2.30;;;1.33;;
18228;SDS011;9239;50.932;3.142;2023-07-13T12:31:24;2.80;;;1.30;;
18228;SDS011;9239;50.932;3.142;2023-07-13T12:33:57;3.83;;;1.42;;
18228;SDS011;9239;50.932;3.142;2023-07-13T12:36:25;4.60;;;1.65;;
18228;SDS011;9239;50.932;3.142;2023-07-13T12:38:56;1.60;;;1.50;;
18228;SDS011;9239;50.932;3.142;2023-07-13T12:41:28;2.33;;;1.30;;
18228;SDS011;9239;50.932;3.142;2023-07-13T12:43:56;1.48;;;1.20;;
18228;SDS011;9239;50.932;3.142;2023-07-13T12:46:23;2.80;;;1.67;;
18228;SDS011;9239;50.932;3.142;2023-07-13T12:48:54;3.25;;;1.50;;
18228;SDS011;9239;50.932;3.142;2023-07-13T12:51:24;3.28;;;1.30;;
18228;SDS011;9239;50.932;3.142;2023-07-13T12:53:56;2.58;;;1.30;;
18228;SDS011;9239;50.932;3.142;2023-07-13T12:56:26;2.88;;;1.20;;
18228;SDS011;9239;50.932;3.142;2023-07-13T12:58:56;3.42;;;1.50;;
18228;SDS011;9239;50.932;3.142;2023-07-13T13:01:26;4.15;;;1.20;;
18228;SDS011;9239;50.932;3.142;2023-07-13T13:03:55;3.60;;;1.90;;
18228;SDS011;9239;50.932;3.142;2023-07-13T13:06:24;3.42;;;1.50;;
18228;SDS011;9239;50.932;3.142;2023-07-13T13:08:52;1.60;;;1.48;;
18228;SDS011;9239;50.932;3.142;2023-07-13T13:11:21;2.80;;;1.60;;
18228;SDS011;9239;50.932;3.142;2023-07-13T13:13:49;4.22;;;1.77;;
18228;SDS011;9239;50.932;3.142;2023-07-13T13:16:19;2.08;;;1.30;;
18228;SDS011;9239;50.932;3.142;2023-07-13T13:18:48;4.38;;;1.40;;
18228;SDS011;9239;50.932;3.142;2023-07-13T13:21:16;3.60;;;1.67;;
18228;SDS011;9239;50.932;3.142;2023-07-13T13:23:45;3.38;;;1.95;;
18228;SDS011;9239;50.932;3.142;2023-07-13T13:26:15;2.67;;;1.40;;
18228;SDS011;9239;50.932;3.142;2023-07-13T13:28:42;4.53;;;1.33;;
18228;SDS011;9239;50.932;3.142;2023-07-13T13:31:10;1.42;;;1.23;;
18228;SDS011;9239;50.932;3.142;2023-07-13T13:33:39;4.55;;;1.83;;
18228;SDS011;9239;50.932;3.142;2023-07-13T13:36:14;2.80;;;1.50;;
18228;SDS011;9239;50.932;3.142;2023-07-13T13:38:42;1.55;;;0.93;;
18228;SDS011;9239;50.932;3.142;2023-07-13T13:41:12;1.92;;;1.42;;
18228;SDS011;9239;50.932;3.142;2023-07-13T13:43:40;1.92;;;1.20;;
18228;SDS011;9239;50.932;3.142;2023-07-13T13:46:13;3.88;;;1.33;;
18228;SDS011;9239;50.932;3.142;2023-07-13T13:48:43;4.10;;;1.55;;
18228;SDS011;9239;50.932;3.142;2023-07-13T13:51:14;3.15;;;1.55;;
18228;SDS011;9239;50.932;3.142;2023-07-13T13:53:42;2.75;;;1.48;;
18228;SDS011;9239;50.932;3.142;2023-07-13T13:56:11;2.42;;;1.33;;
18228;SDS011;9239;50.932;3.142;2023-07-13T13:58:39;4.72;;;1.58;;
18228;SDS011;9239;50.932;3.142;2023-07-13T14:01:10;4.43;;;1.48;;
18228;SDS011;9239;50.932;3.142;2023-07-13T14:03:40;3.95;;;1.55;;
18228;SDS011;9239;50.932;3.142;2023-07-13T14:06:07;2.30;;;1.80;;
18228;SDS011;9239;50.932;3.142;2023-07-13T14:08:37;2.45;;;1.58;;
18228;SDS011;9239;50.932;3.142;2023-07-13T14:11:04;5.03;;;1.40;;
18228;SDS011;9239;50.932;3.142;2023-07-13T14:13:36;1.48;;;1.38;;
18228;SDS011;9239;50.932;3.142;2023-07-13T14:16:08;3.72;;;1.65;;
18228;SDS011;9239;50.932;3.142;2023-07-13T14:18:37;2.58;;;1.15;;
18228;SDS011;9239;50.932;3.142;2023-07-13T14:21:08;1.42;;;1.30;;
18228;SDS011;9239;50.932;3.142;2023-07-13T14:23:39;3.20;;;1.17;;
18228;SDS011;9239;50.932;3.142;2023-07-13T14:26:08;2.60;;;1.10;;
18228;SDS011;9239;50.932;3.142;2023-07-13T14:28:39;2.17;;;1.35;;
18228;SDS011;9239;50.932;3.142;2023-07-13T14:31:09;2.42;;;1.45;;
18228;SDS011;9239;50.932;3.142;2023-07-13T14:33:36;1.33;;;1.08;;
18228;SDS011;9239;50.932;3.142;2023-07-13T14:36:03;3.53;;;1.30;;
18228;SDS011;9239;50.932;3.142;2023-07-13T14:38:49;4.30;;;1.58;;
18228;SDS011;9239;50.932;3.142;2023-07-13T14:41:16;2.22;;;1.17;;
18228;SDS011;9239;50.932;3.142;2023-07-13T14:43:45;2.17;;;1.38;;
18228;SDS011;9239;50.932;3.142;2023-07-13T14:46:16;2.08;;;1.20;;
18228;SDS011;9239;50.932;3.142;2023-07-13T14:48:50;2.13;;;1.20;;
18228;SDS011;9239;50.932;3.142;2023-07-13T14:51:17;3.75;;;1.65;;
18228;SDS011;9239;50.932;3.142;2023-07-13T14:53:44;3.33;;;1.40;;
18228;SDS011;9239;50.932;3.142;2023-07-13T14:56:11;3.20;;;1.50;;
18228;SDS011;9239;50.932;3.142;2023-07-13T14:58:40;6.90;;;1.65;;
18228;SDS011;9239;50.932;3.142;2023-07-13T15:03:40;2.83;;;1.48;;
18228;SDS011;9239;50.932;3.142;2023-07-13T15:06:10;2.75;;;1.20;;
18228;SDS011;9239;50.932;3.142;2023-07-13T15:08:39;3.05;;;1.55;;
18228;SDS011;9239;50.932;3.142;2023-07-13T15:11:06;3.33;;;1.65;;
18228;SDS011;9239;50.932;3.142;2023-07-13T15:13:37;1.92;;;1.65;;
18228;SDS011;9239;50.932;3.142;2023-07-13T15:16:05;1.98;;;1.52;;